Terminal Aerodrome Forecast
Issued by NWS

Home | Current Version | Previous Version | Text Only | Print | Product List | Glossary Off
Versions: 1 2 3 4 5 6 7 8 9 10 11 12 13 14 15 16 17 18 19 20 21 22 23 24 25 26 27 28 29 30 31 32

000
FTUS43 KGRB 261007 AAB
TAFRHI
TAF AMD
KRHI 261007Z 2610/2706 VRB03KT P6SM SCT002 BKN120
      TEMPO 2610/2612 5SM BR
     FM261500 24005KT P6SM SCT070 BKN200=

USA.gov is the U.S. government's official web portal to all federal, state and local government web resources and services.